Time;durP1;ratioP1;P1;durP2;ratioP2;P2;SDS_P1;SDS_P2;PMS_P1;PMS_P2;Temp;Humidity;BMP_temperature;BMP_pressure;BME280_temperature;BME280_humidity;BME280_pressure;Samples;Min_cycle;Max_cycle;Signal;HPM_P1;HPM_P2
2023/08/05 00:00:10;;;;;;;;;;;;;;;15.96;93.96;101632.97;5026649;28;2248;-75
2023/08/05 00:02:35;;;;;;;;;;;;;;;15.96;93.95;101630.34;5027989;28;1096;-75
2023/08/05 00:05:00;;;;;;;;;;;;;;;15.92;94.35;101635.03;5034099;28;1111;-75
2023/08/05 00:07:25;;;;;;;;;;;;;;;15.87;94.44;101627.59;5036789;28;1954;-75
2023/08/05 00:09:51;;;;;;;;;;;;;;;15.86;95.04;101627.75;5037446;28;1239;-75
2023/08/05 00:12:16;;;;;;;;;;;;;;;15.85;94.97;101629.53;5037463;28;1075;-75
2023/08/05 00:14:41;;;;;;;;;;;;;;;15.85;94.63;101619.06;5033883;28;1013;-75
2023/08/05 00:17:06;;;;;;;;;;;;;;;15.84;94.95;101622.66;5033385;28;1083;-76
2023/08/05 00:19:31;;;;;;;;;;;;;;;15.82;95.05;101619.34;5037600;28;1219;-76
2023/08/05 00:21:56;;;;;;;;;;;;;;;15.81;94.88;101622.91;5038923;28;1171;-75
2023/08/05 00:24:22;;;;;;;;;;;;;;;15.78;95.20;101617.97;5039524;28;1132;-75
2023/08/05 00:26:47;;;;;;;;;;;;;;;15.78;95.63;101622.38;5043787;28;1957;-75
2023/08/05 00:29:12;;;;;;;;;;;;;;;15.76;96.21;101630.34;5040522;28;1238;-75
2023/08/05 00:31:37;;;;;;;;;;;;;;;15.75;95.90;101623.47;5033449;28;1010;-75
2023/08/05 00:34:02;;;;;;;;;;;;;;;15.76;95.97;101616.44;5041397;28;1597;-75
2023/08/05 00:36:28;;;;;;;;;;;;;;;15.76;96.12;101619.88;5043820;28;1160;-75
2023/08/05 00:38:53;;;;;;;;;;;;;;;15.76;95.67;101619.88;5040366;28;1227;-75
2023/08/05 00:41:18;;;;;;;;;;;;;;;15.77;96.26;101611.09;5039463;28;1166;-76
2023/08/05 00:43:44;;;;;;;;;;;;;;;15.77;96.13;101616.34;5038456;28;984;-75
2023/08/05 00:46:09;;;;;;;;;;;;;;;15.76;96.49;101609.44;5034100;28;1929;-75
2023/08/05 00:48:35;;;;;;;;;;;;;;;15.76;96.42;101603.38;5034080;28;1175;-75
2023/08/05 00:51:01;;;;;;;;;;;;;;;15.78;96.46;101602.28;5040733;28;1070;-76
2023/08/05 00:53:26;;;;;;;;;;;;;;;15.83;96.42;101605.31;5046440;28;1047;-76
2023/08/05 00:55:52;;;;;;;;;;;;;;;15.85;95.86;101598.13;5037726;28;1072;-76
2023/08/05 00:58:19;;;;;;;;;;;;;;;15.85;95.69;101598.13;5048479;28;1478;-75
2023/08/05 01:00:44;;;;;;;;;;;;;;;15.83;95.41;101600.09;5034358;28;1050;-75
2023/08/05 01:03:09;;;;;;;;;;;;;;;15.80;95.73;101594.28;5041593;28;1048;-75
2023/08/05 01:05:37;;;;;;;;;;;;;;;15.76;96.03;101591.13;5041529;28;994;-76
2023/08/05 01:08:03;;;;;;;;;;;;;;;15.72;96.31;101584.53;5035917;28;1979;-75
2023/08/05 01:10:28;;;;;;;;;;;;;;;15.73;96.60;101574.91;5039415;28;1195;-76
2023/08/05 01:12:54;;;;;;;;;;;;;;;15.70;96.37;101578.59;5041907;28;1227;-75
2023/08/05 01:15:19;;;;;;;;;;;;;;;15.69;96.73;101578.75;5033319;28;1215;-75
2023/08/05 01:17:44;;;;;;;;;;;;;;;15.69;96.61;101576.13;5042180;28;1282;-76
2023/08/05 01:20:10;;;;;;;;;;;;;;;15.68;96.35;101580.53;5044356;28;1099;-75
2023/08/05 01:22:39;;;;;;;;;;;;;;;15.60;96.65;101577.78;5042691;28;1073;-75
2023/08/05 01:25:22;;;;;;;;;;;;;;;15.52;96.36;101569.78;5041503;28;1118;-76
2023/08/05 01:27:48;;;;;;;;;;;;;;;15.46;96.76;101570.34;5042660;28;1962;-75
2023/08/05 01:30:13;;;;;;;;;;;;;;;15.41;97.18;101568.16;5046476;28;1189;-75
2023/08/05 01:32:39;;;;;;;;;;;;;;;15.40;96.90;101567.31;5041721;28;1003;-76
2023/08/05 01:35:05;;;;;;;;;;;;;;;15.39;97.01;101570.91;5040531;28;1249;-76
2023/08/05 01:37:31;;;;;;;;;;;;;;;15.36;97.39;101560.72;5043049;28;1085;-75
2023/08/05 01:39:56;;;;;;;;;;;;;;;15.32;97.59;101575.03;5044334;28;1248;-75
2023/08/05 01:42:21;;;;;;;;;;;;;;;15.29;97.86;101569.25;5041343;28;1130;-75
2023/08/05 01:44:46;;;;;;;;;;;;;;;15.25;97.88;101563.47;5039327;28;1060;-75
2023/08/05 01:47:11;;;;;;;;;;;;;;;15.21;97.68;101569.94;5042376;28;1945;-75
2023/08/05 01:49:37;;;;;;;;;;;;;;;15.19;97.97;101565.81;5042441;28;992;-75
2023/08/05 01:52:02;;;;;;;;;;;;;;;15.19;98.45;101569.25;5037532;28;1181;-75
2023/08/05 01:54:27;;;;;;;;;;;;;;;15.18;98.11;101562.38;5034958;28;1205;-75
2023/08/05 01:56:52;;;;;;;;;;;;;;;15.19;98.46;101563.19;5039536;28;1125;-75
2023/08/05 01:59:17;;;;;;;;;;;;;;;15.19;98.29;101563.19;5037055;28;1084;-75
2023/08/05 02:01:46;;;;;;;;;;;;;;;15.18;98.27;101561.53;5041917;28;1014;-75
2023/08/05 02:04:12;;;;;;;;;;;;;;;15.14;98.33;101563.63;5035810;28;1049;-77
2023/08/05 02:06:37;;;;;;;;;;;;;;;15.09;98.37;101569.25;5040902;28;2331;-75
2023/08/05 02:09:02;;;;;;;;;;;;;;;15.06;98.55;101563.47;5044797;28;1124;-75
2023/08/05 02:11:28;;;;;;;;;;;;;;;15.05;98.62;101556.59;5044419;28;1140;-75
2023/08/05 02:13:53;;;;;;;;;;;;;;;15.04;99.39;101560.16;5030612;28;2392;-75
2023/08/05 02:16:18;;;;;;;;;;;;;;;15.06;99.05;101566.06;5043515;28;1083;-76
2023/08/05 02:18:45;;;;;;;;;;;;;;;15.06;99.38;101566.06;5039752;28;1089;-75
2023/08/05 02:21:10;;;;;;;;;;;;;;;15.06;99.47;101560.84;5047554;28;1182;-75
2023/08/05 02:23:35;;;;;;;;;;;;;;;15.06;99.81;101561.66;5046376;28;1106;-75
2023/08/05 02:26:02;;;;;;;;;;;;;;;15.10;99.64;101564.84;5046778;28;1102;-75
2023/08/05 02:28:27;;;;;;;;;;;;;;;15.15;99.67;101562.66;5039923;28;1957;-76
2023/08/05 02:30:52;;;;;;;;;;;;;;;15.20;100.00;101557.84;5046644;28;1178;-75
2023/08/05 02:33:17;;;;;;;;;;;;;;;15.24;99.64;101546.13;5042821;28;1242;-75
2023/08/05 02:35:43;;;;;;;;;;;;;;;15.29;99.91;101541.31;5042584;28;1090;-75
2023/08/05 02:38:08;;;;;;;;;;;;;;;15.30;99.83;101540.34;5035011;28;1099;-76
2023/08/05 02:40:33;;;;;;;;;;;;;;;15.31;99.72;101534.19;5036426;28;1077;-75
2023/08/05 02:42:58;;;;;;;;;;;;;;;15.34;99.47;101536.50;5032811;28;1426;-75
2023/08/05 02:45:23;;;;;;;;;;;;;;;15.36;99.65;101538.97;5033459;28;1251;-75
2023/08/05 02:47:49;;;;;;;;;;;;;;;15.35;99.85;101543.38;5037055;28;1898;-75
2023/08/05 02:50:14;;;;;;;;;;;;;;;15.35;99.22;101543.38;5034519;28;1095;-75
2023/08/05 02:52:39;;;;;;;;;;;;;;;15.32;99.20;101543.69;5041422;28;1153;-75
2023/08/05 02:55:04;;;;;;;;;;;;;;;15.25;99.44;101542.56;5034639;28;1022;-76
2023/08/05 02:57:30;;;;;;;;;;;;;;;15.20;99.64;101543.97;5036804;28;1061;-75
2023/08/05 02:59:55;;;;;;;;;;;;;;;15.16;99.71;101542.56;5034305;28;1206;-75
2023/08/05 03:02:20;;;;;;;;;;;;;;;15.12;99.60;101542.00;5042065;28;1052;-75
2023/08/05 03:04:45;;;;;;;;;;;;;;;15.11;100.00;101540.38;5039683;28;1101;-76
2023/08/05 03:07:10;;;;;;;;;;;;;;;15.12;100.00;101531.56;5041797;28;1894;-77
2023/08/05 03:09:36;;;;;;;;;;;;;;;15.15;100.00;101526.06;5040467;28;1239;-75
2023/08/05 03:12:04;;;;;;;;;;;;;;;15.15;100.00;101513.00;5044262;28;993;-75
2023/08/05 03:14:29;;;;;;;;;;;;;;;15.17;100.00;101511.06;5040980;28;955;-75
2023/08/05 03:16:54;;;;;;;;;;;;;;;15.19;100.00;101511.75;5042586;28;1004;-75
2023/08/05 03:19:20;;;;;;;;;;;;;;;15.16;100.00;101512.03;5035044;28;1071;-75
2023/08/05 03:21:45;;;;;;;;;;;;;;;15.09;100.00;101517.00;5041880;28;1024;-75
2023/08/05 03:24:10;;;;;;;;;;;;;;;15.04;100.00;101508.75;5033224;28;1159;-75
2023/08/05 03:26:35;;;;;;;;;;;;;;;15.00;100.00;101502.13;5040141;28;1905;-75
2023/08/05 03:29:00;;;;;;;;;;;;;;;15.01;100.00;101495.13;5042041;28;1082;-75
2023/08/05 03:31:25;;;;;;;;;;;;;;;14.97;100.00;101491.97;5036864;28;1048;-76
2023/08/05 03:33:51;;;;;;;;;;;;;;;14.96;100.00;101489.47;5037494;28;1091;-75
2023/08/05 03:36:16;;;;;;;;;;;;;;;14.92;100.00;101482.91;5040909;28;1183;-74
2023/08/05 03:38:41;;;;;;;;;;;;;;;14.91;100.00;101481.22;5044000;28;1090;-75
2023/08/05 03:41:06;;;;;;;;;;;;;;;14.95;100.00;101480.00;5031368;28;1005;-75
2023/08/05 03:43:32;;;;;;;;;;;;;;;14.97;100.00;101481.53;5032904;28;1087;-75
2023/08/05 03:45:57;;;;;;;;;;;;;;;14.98;100.00;101477.13;5037637;28;1145;-75
2023/08/05 03:48:23;;;;;;;;;;;;;;;14.97;100.00;101475.47;5037047;28;1962;-75
2023/08/05 03:50:48;;;;;;;;;;;;;;;14.98;100.00;101477.13;5036771;28;988;-75
2023/08/05 03:53:13;;;;;;;;;;;;;;;14.98;100.00;101471.91;5036261;28;969;-75
2023/08/05 03:55:38;;;;;;;;;;;;;;;14.98;100.00;101466.69;5033129;28;1187;-75
2023/08/05 03:58:04;;;;;;;;;;;;;;;14.97;100.00;101459.81;5039388;28;1066;-75
2023/08/05 04:00:29;;;;;;;;;;;;;;;14.97;100.00;101463.25;5039078;28;1546;-75
2023/08/05 04:02:55;;;;;;;;;;;;;;;14.96;100.00;101458.97;5037550;28;1018;-75
2023/08/05 04:05:20;;;;;;;;;;;;;;;14.97;100.00;101454.59;5044182;28;1149;-77
2023/08/05 04:07:46;;;;;;;;;;;;;;;14.97;100.00;101454.59;5035102;28;1942;-75
2023/08/05 04:10:12;;;;;;;;;;;;;;;14.92;100.00;101457.59;5037948;28;1063;-75
2023/08/05 04:12:37;;;;;;;;;;;;;;;14.91;100.00;101449.88;5040419;28;1096;-75
2023/08/05 04:15:03;;;;;;;;;;;;;;;14.86;100.00;101461.59;5035893;28;975;-75
2023/08/05 04:17:29;;;;;;;;;;;;;;;14.84;100.00;101458.28;5041315;28;1096;-75
2023/08/05 04:19:54;;;;;;;;;;;;;;;14.84;100.00;101465.28;5043059;28;1115;-75
2023/08/05 04:22:22;;;;;;;;;;;;;;;14.81;100.00;101466.41;5039286;28;1077;-75
2023/08/05 04:24:47;;;;;;;;;;;;;;;14.79;100.00;101468.28;5040778;28;1057;-76
2023/08/05 04:27:12;;;;;;;;;;;;;;;14.77;100.00;101462.41;5032833;28;1898;-75
2023/08/05 04:29:37;;;;;;;;;;;;;;;14.74;100.00;101454.84;5033665;28;1028;-75
2023/08/05 04:32:03;;;;;;;;;;;;;;;14.74;100.00;101433.97;5042559;28;1193;-75
2023/08/05 04:34:33;;;;;;;;;;;;;;;14.75;100.00;101438.22;5036461;28;1199;-75
2023/08/05 04:37:13;;;;;;;;;;;;;;;14.75;100.00;101430.38;5032804;28;993;-75
2023/08/05 04:39:39;;;;;;;;;;;;;;;14.74;100.00;101423.53;5032772;28;958;-75
2023/08/05 04:42:04;;;;;;;;;;;;;;;14.72;100.00;101420.19;5035603;28;1119;-75
2023/08/05 04:44:29;;;;;;;;;;;;;;;14.68;100.00;101418.84;5035161;28;1290;-75
2023/08/05 04:46:54;;;;;;;;;;;;;;;14.66;100.00;101415.53;5036086;28;1894;-75
2023/08/05 04:49:20;;;;;;;;;;;;;;;14.68;100.00;101421.47;5032042;28;1065;-75
2023/08/05 04:51:45;;;;;;;;;;;;;;;14.69;100.00;101409.22;5033047;28;1184;-76
2023/08/05 04:54:10;;;;;;;;;;;;;;;14.66;100.00;101410.31;5038861;28;1028;-75
2023/08/05 04:56:35;;;;;;;;;;;;;;;14.66;100.00;101407.69;5039266;28;1123;-76
2023/08/05 04:59:01;;;;;;;;;;;;;;;14.67;100.00;101411.94;5041128;28;1210;-75
2023/08/05 05:01:26;;;;;;;;;;;;;;;14.67;100.00;101411.94;5039014;28;1027;-74
2023/08/05 05:03:51;;;;;;;;;;;;;;;14.65;100.00;101413.88;5041697;28;1523;-74
2023/08/05 05:06:16;;;;;;;;;;;;;;;14.65;100.00;101416.50;5027818;28;1898;-74
2023/08/05 05:08:41;;;;;;;;;;;;;;;14.58;100.00;101410.19;5042156;28;1371;-75
2023/08/05 05:11:10;;;;;;;;;;;;;;;14.54;100.00;101408.78;5042781;28;1257;-75
2023/08/05 05:13:36;;;;;;;;;;;;;;;14.51;100.00;101409.09;5041631;28;1119;-74
2023/08/05 05:16:02;;;;;;;;;;;;;;;14.53;100.00;101414.97;5038104;28;1106;-74
2023/08/05 05:18:27;;;;;;;;;;;;;;;14.52;100.00;101408.13;5040576;28;1090;-76
2023/08/05 05:20:54;;;;;;;;;;;;;;;14.53;100.00;101404.53;5048116;28;1268;-76
2023/08/05 05:23:19;;;;;;;;;;;;;;;14.53;100.00;101400.16;5042721;28;1084;-75
2023/08/05 05:25:45;;;;;;;;;;;;;;;14.51;100.00;101398.66;5037711;28;1417;-74
2023/08/05 05:28:10;;;;;;;;;;;;;;;14.53;100.00;101404.53;5046622;28;1910;-74
2023/08/05 05:30:35;;;;;;;;;;;;;;;14.51;100.00;101396.03;5041824;28;1001;-75
2023/08/05 05:33:00;;;;;;;;;;;;;;;14.50;100.00;101396.97;5032312;28;1092;-74
2023/08/05 05:35:26;;;;;;;;;;;;;;;14.52;100.00;101392.47;5038821;28;1411;-74
2023/08/05 05:37:51;;;;;;;;;;;;;;;14.53;100.00;101394.94;5042515;28;1086;-74
2023/08/05 05:40:16;;;;;;;;;;;;;;;14.53;100.00;101396.72;5041663;28;1196;-75
2023/08/05 05:42:41;;;;;;;;;;;;;;;14.56;100.00;101399.84;5042969;28;1075;-75
2023/08/05 05:45:07;;;;;;;;;;;;;;;14.59;100.00;101398.78;5039739;28;1153;-75
2023/08/05 05:47:32;;;;;;;;;;;;;;;14.61;100.00;101381.19;5032122;28;1906;-75
2023/08/05 05:49:57;;;;;;;;;;;;;;;14.61;100.00;101386.41;5038709;28;1247;-75
2023/08/05 05:52:24;;;;;;;;;;;;;;;14.61;100.00;101392.44;5044990;28;1133;-75
2023/08/05 05:54:49;;;;;;;;;;;;;;;14.61;100.00;101391.63;5040218;28;2462;-75
2023/08/05 05:57:14;;;;;;;;;;;;;;;14.62;100.00;101385.44;5044574;28;983;-75
2023/08/05 05:59:39;;;;;;;;;;;;;;;14.62;100.00;101393.25;5042853;28;1154;-75
2023/08/05 06:02:06;;;;;;;;;;;;;;;14.61;100.00;101386.41;5041241;28;1335;-74
2023/08/05 06:04:31;;;;;;;;;;;;;;;14.60;100.00;101374.31;5041492;28;1218;-76
2023/08/05 06:06:56;;;;;;;;;;;;;;;14.60;100.00;101385.56;5037497;28;1898;-75
2023/08/05 06:09:21;;;;;;;;;;;;;;;14.59;100.00;101378.72;5047776;28;1071;-75
2023/08/05 06:11:47;;;;;;;;;;;;;;;14.59;100.00;101383.13;5042490;28;1075;-75
2023/08/05 06:14:12;;;;;;;;;;;;;;;14.59;100.00;101383.13;5045808;28;1012;-74
2023/08/05 06:16:37;;;;;;;;;;;;;;;14.58;100.00;101381.47;5036192;28;1071;-75
2023/08/05 06:19:03;;;;;;;;;;;;;;;14.62;100.00;101388.03;5041565;28;1041;-75
2023/08/05 06:21:28;;;;;;;;;;;;;;;14.61;100.00;101373.34;5045039;28;1149;-76
2023/08/05 06:23:53;;;;;;;;;;;;;;;14.60;100.00;101369.09;5037824;28;1003;-76
2023/08/05 06:26:18;;;;;;;;;;;;;;;14.61;100.00;101373.34;5032998;28;1909;-77
2023/08/05 06:28:43;;;;;;;;;;;;;;;14.60;100.00;101374.31;5044661;28;1081;-76
2023/08/05 06:31:09;;;;;;;;;;;;;;;14.61;100.00;101370.72;5044313;28;1012;-77
2023/08/05 06:33:34;;;;;;;;;;;;;;;14.62;100.00;101377.59;5040202;28;1089;-77
2023/08/05 06:35:59;;;;;;;;;;;;;;;14.64;100.00;101370.47;5035464;28;1275;-76
2023/08/05 06:38:26;;;;;;;;;;;;;;;14.65;100.00;101372.13;5035855;28;1009;-76
2023/08/05 06:40:51;;;;;;;;;;;;;;;14.72;100.00;101367.16;5040829;28;1067;-76
2023/08/05 06:43:17;;;;;;;;;;;;;;;14.79;100.00;101369.06;5034834;28;1000;-77
2023/08/05 06:45:42;;;;;;;;;;;;;;;14.83;100.00;101365.22;5042769;28;1079;-77
2023/08/05 06:48:07;;;;;;;;;;;;;;;14.91;100.00;101366.31;5042813;28;2429;-77
2023/08/05 06:50:32;;;;;;;;;;;;;;;14.98;100.00;101357.78;5042426;28;1486;-78
2023/08/05 06:52:58;;;;;;;;;;;;;;;15.09;100.00;101359.41;5040154;28;1108;-77
2023/08/05 06:55:23;;;;;;;;;;;;;;;15.18;100.00;101353.31;5037537;28;1247;-77
2023/08/05 06:57:48;;;;;;;;;;;;;;;15.25;100.00;101354.38;5035971;28;1160;-77
2023/08/05 07:00:13;;;;;;;;;;;;;;;15.30;100.00;101357.41;5038715;28;1005;-76
2023/08/05 07:02:39;;;;;;;;;;;;;;;15.40;100.00;101352.97;5041518;28;960;-77
2023/08/05 07:05:04;;;;;;;;;;;;;;;15.51;100.00;101345.91;5037721;28;1167;-76
2023/08/05 07:07:30;;;;;;;;;;;;;;;15.61;100.00;101344.09;5038338;28;1894;-76
2023/08/05 07:10:01;;;;;;;;;;;;;;;15.71;100.00;101344.88;5037252;28;1033;-76
2023/08/05 07:12:26;;;;;;;;;;;;;;;15.78;100.00;101340.72;5042637;28;1052;-76
2023/08/05 07:14:51;;;;;;;;;;;;;;;15.84;100.00;101337.53;5036854;28;1028;-77
2023/08/05 07:17:16;;;;;;;;;;;;;;;15.93;100.00;101335.81;5036962;28;954;-76
2023/08/05 07:19:41;;;;;;;;;;;;;;;15.94;100.00;101334.81;5035920;28;1069;-76
2023/08/05 07:22:07;;;;;;;;;;;;;;;15.99;100.00;101342.25;5045484;28;1073;-76
2023/08/05 07:24:32;;;;;;;;;;;;;;;16.02;99.95;101336.72;5031622;28;1068;-78
2023/08/05 07:26:57;;;;;;;;;;;;;;;16.10;100.00;101334.19;5038415;28;1910;-77
2023/08/05 07:29:22;;;;;;;;;;;;;;;16.16;100.00;101336.19;5037165;28;1090;-77
2023/08/05 07:31:47;;;;;;;;;;;;;;;16.22;99.80;101332.97;5031947;28;965;-76
2023/08/05 07:34:14;;;;;;;;;;;;;;;16.26;99.43;101328.28;5044935;28;1039;-78
2023/08/05 07:36:41;;;;;;;;;;;;;;;16.30;99.24;101325.22;5037470;28;1132;-78
2023/08/05 07:39:08;;;;;;;;;;;;;;;16.30;98.79;101317.38;5040219;28;1044;-77
2023/08/05 07:41:33;;;;;;;;;;;;;;;16.33;98.93;101319.66;5043348;28;1068;-78
2023/08/05 07:44:00;;;;;;;;;;;;;;;16.38;98.61;101317.44;5037923;28;1063;-77
2023/08/05 07:46:25;;;;;;;;;;;;;;;16.40;98.40;101320.75;5036892;28;1922;-78
2023/08/05 07:48:56;;;;;;;;;;;;;;;16.38;98.04;101309.56;5041686;28;1281;-77
2023/08/05 07:51:23;;;;;;;;;;;;;;;16.42;97.31;101308.31;5041017;28;1575;-77
2023/08/05 07:53:48;;;;;;;;;;;;;;;16.47;97.79;101310.47;5031435;28;1202;-77
2023/08/05 07:56:14;;;;;;;;;;;;;;;16.57;97.50;101310.38;5035277;28;1073;-78
2023/08/05 07:58:42;;;;;;;;;;;;;;;16.69;97.01;101311.78;5038131;28;890;-77
2023/08/05 08:01:08;;;;;;;;;;;;;;;16.84;96.48;101307.66;5043442;28;1257;-77
2023/08/05 08:03:33;;;;;;;;;;;;;;;16.92;96.47;101305.09;5044135;28;1016;-75
2023/08/05 08:05:59;;;;;;;;;;;;;;;16.98;95.81;101294.00;5042311;28;1103;-76
2023/08/05 08:08:24;;;;;;;;;;;;;;;16.95;95.60;101283.81;5035441;28;1973;-78
2023/08/05 08:10:49;;;;;;;;;;;;;;;16.96;94.89;101290.69;5041706;28;1021;-77
2023/08/05 08:13:15;;;;;;;;;;;;;;;16.96;94.31;101289.88;5038178;28;1125;-77
2023/08/05 08:15:40;;;;;;;;;;;;;;;16.96;94.66;101282.81;5034159;28;890;-77
2023/08/05 08:18:05;;;;;;;;;;;;;;;16.98;94.62;101283.50;5038021;28;1117;-80
2023/08/05 08:20:30;;;;;;;;;;;;;;;17.00;94.20;101280.72;5039592;28;1254;-77
2023/08/05 08:22:55;;;;;;;;;;;;;;;16.99;94.40;101279.91;5032850;28;1112;-76
2023/08/05 08:25:20;;;;;;;;;;;;;;;17.02;93.30;101275.31;5042896;28;1156;-77
2023/08/05 08:27:46;;;;;;;;;;;;;;;17.01;93.46;101274.50;5034616;28;1946;-76
2023/08/05 08:30:12;;;;;;;;;;;;;;;17.02;92.81;101272.69;5035536;28;1227;-75
2023/08/05 08:32:37;;;;;;;;;;;;;;;16.96;93.09;101261.03;5043207;28;1160;-75
2023/08/05 08:35:02;;;;;;;;;;;;;;;16.97;92.97;101260.91;5035127;28;1087;-74
2023/08/05 08:37:28;;;;;;;;;;;;;;;17.00;93.03;101262.38;5043556;28;1172;-76
2023/08/05 08:39:53;;;;;;;;;;;;;;;17.05;92.57;101251.44;5043753;28;1168;-76
2023/08/05 08:42:19;;;;;;;;;;;;;;;17.10;92.27;101254.41;5038353;28;1055;-76
2023/08/05 08:44:45;;;;;;;;;;;;;;;17.13;91.99;101251.47;5045372;28;1176;-75
2023/08/05 08:47:10;;;;;;;;;;;;;;;17.17;92.00;101250.19;5032237;28;2713;-75
2023/08/05 08:49:36;;;;;;;;;;;;;;;17.22;91.98;101243.47;5046689;28;1208;-75
2023/08/05 08:52:02;;;;;;;;;;;;;;;17.27;91.90;101237.78;5037011;28;1098;-76
2023/08/05 08:54:28;;;;;;;;;;;;;;;17.31;92.11;101225.97;5040088;28;1244;-76
2023/08/05 08:56:53;;;;;;;;;;;;;;;17.37;91.96;101225.31;5035642;28;1083;-75
2023/08/05 08:59:18;;;;;;;;;;;;;;;17.47;92.06;101226.00;5037234;28;1261;-75
2023/08/05 09:01:45;;;;;;;;;;;;;;;17.52;91.35;101228.97;5034033;28;1158;-75
2023/08/05 09:04:11;;;;;;;;;;;;;;;17.61;91.16;101226.38;5041741;28;1039;-74
2023/08/05 09:06:38;;;;;;;;;;;;;;;17.63;90.21;101221.78;5033732;28;1951;-73
2023/08/05 09:09:04;;;;;;;;;;;;;;;17.67;90.18;101215.25;5032101;28;1161;-72
2023/08/05 09:11:29;;;;;;;;;;;;;;;17.67;90.45;101223.13;5028897;28;1114;-73
2023/08/05 09:13:54;;;;;;;;;;;;;;;17.74;90.22;101216.28;5037924;28;1329;-73
2023/08/05 09:16:19;;;;;;;;;;;;;;;17.78;89.63;101212.34;5036213;28;1077;-73
2023/08/05 09:18:51;;;;;;;;;;;;;;;17.78;89.52;101202.66;5045912;28;1018;-73
2023/08/05 09:21:24;;;;;;;;;;;;;;;17.86;89.58;101199.22;5035563;28;1086;-73
2023/08/05 09:23:49;;;;;;;;;;;;;;;17.97;88.97;101187.56;5037625;28;1130;-75
2023/08/05 09:26:14;;;;;;;;;;;;;;;18.01;88.23;101187.09;5041046;28;1054;-73
2023/08/05 09:28:39;;;;;;;;;;;;;;;18.07;88.06;101179.53;5040468;28;1985;-75
2023/08/05 09:31:12;;;;;;;;;;;;;;;18.15;88.20;101176.91;5036682;28;1116;-71
2023/08/05 09:33:38;;;;;;;;;;;;;;;18.20;87.10;101171.97;5041767;28;1172;-71
2023/08/05 09:36:07;;;;;;;;;;;;;;;18.16;87.42;101178.53;5040247;28;1116;-73
2023/08/05 09:38:32;;;;;;;;;;;;;;;18.23;87.75;101155.88;5045593;28;1145;-72
2023/08/05 09:40:59;;;;;;;;;;;;;;;18.43;87.57;101157.16;5048341;28;1476;-72
2023/08/05 09:43:28;;;;;;;;;;;;;;;18.66;87.04;101149.38;5042325;28;1062;-72
2023/08/05 09:45:54;;;;;;;;;;;;;;;18.81;86.03;101152.13;5037964;28;1125;-73
2023/08/05 09:48:22;;;;;;;;;;;;;;;18.77;85.85;101153.47;5039955;28;1906;-71
2023/08/05 09:50:48;;;;;;;;;;;;;;;18.81;85.46;101146.88;5040124;28;1102;-71
2023/08/05 09:53:17;;;;;;;;;;;;;;;18.87;85.03;101140.94;5040037;28;1047;-72
2023/08/05 09:55:43;;;;;;;;;;;;;;;18.95;84.37;101133.00;5038434;28;1090;-72
2023/08/05 09:58:09;;;;;;;;;;;;;;;18.95;84.18;101132.19;5039472;28;1120;-73
2023/08/05 10:00:35;;;;;;;;;;;;;;;19.00;83.03;101127.22;5031827;28;1095;-73
2023/08/05 10:03:04;;;;;;;;;;;;;;;19.02;82.80;101126.06;5033780;28;1095;-73
2023/08/05 10:05:29;;;;;;;;;;;;;;;19.03;83.41;101119.78;5030356;28;1232;-74
2023/08/05 10:07:55;;;;;;;;;;;;;;;19.04;82.47;101124.09;5036797;28;1910;-73
2023/08/05 10:10:20;;;;;;;;;;;;;;;19.16;82.80;101110.56;5038468;28;1082;-73
2023/08/05 10:12:49;;;;;;;;;;;;;;;19.30;82.13;101115.03;5041869;28;1074;-72
2023/08/05 10:15:19;;;;;;;;;;;;;;;19.36;81.48;101094.09;5038837;28;1135;-72
2023/08/05 10:17:45;;;;;;;;;;;;;;;19.42;80.75;101103.13;5036107;28;1017;-73
2023/08/05 10:20:14;;;;;;;;;;;;;;;19.44;80.89;101101.16;5036488;28;1130;-73
2023/08/05 10:22:39;;;;;;;;;;;;;;;19.46;81.24;101093.88;5036827;28;1037;-74
2023/08/05 10:25:05;;;;;;;;;;;;;;;19.44;79.78;101095.03;5036866;28;1059;-72
2023/08/05 10:27:38;;;;;;;;;;;;;;;19.35;79.96;101091.66;5038747;28;1977;-72
2023/08/05 10:30:09;;;;;;;;;;;;;;;19.23;79.99;101085.19;5037693;28;1147;-72
2023/08/05 10:32:35;;;;;;;;;;;;;;;19.12;79.95;101085.59;5039428;28;1125;-73
2023/08/05 10:35:19;;;;;;;;;;;;;;;19.04;79.96;101079.41;5040981;28;1051;-72
2023/08/05 10:37:48;;;;;;;;;;;;;;;19.01;80.22;101085.00;5039989;28;1100;-72
2023/08/05 10:40:13;;;;;;;;;;;;;;;18.97;80.24;101073.19;5039827;28;1012;-72
2023/08/05 10:42:38;;;;;;;;;;;;;;;18.97;79.87;101077.63;5040280;28;1070;-73
2023/08/05 10:45:04;;;;;;;;;;;;;;;18.93;80.03;101074.53;5041214;28;1350;-72
2023/08/05 10:47:29;;;;;;;;;;;;;;;18.94;80.33;101070.91;5042018;28;1910;-72
2023/08/05 10:49:56;;;;;;;;;;;;;;;18.94;80.16;101062.22;5044300;28;1169;-75
2023/08/05 10:52:21;;;;;;;;;;;;;;;18.92;79.90;101059.72;5037295;28;1074;-72
2023/08/05 10:54:47;;;;;;;;;;;;;;;18.92;79.88;101065.00;5036668;28;1090;-71
2023/08/05 10:57:31;;;;;;;;;;;;;;;18.93;80.40;101066.66;5038898;28;1316;-73
2023/08/05 10:59:56;;;;;;;;;;;;;;;18.86;78.86;101057.81;5038903;28;1128;-72
2023/08/05 11:02:22;;;;;;;;;;;;;;;18.83;78.94;101055.53;5039334;28;1164;-73
2023/08/05 11:04:48;;;;;;;;;;;;;;;18.81;79.05;101062.78;5040103;28;948;-74
2023/08/05 11:07:13;;;;;;;;;;;;;;;18.75;79.04;101052.94;5037121;28;1959;-73
2023/08/05 11:09:39;;;;;;;;;;;;;;;18.74;79.22;101056.56;5038372;28;1235;-72
2023/08/05 11:12:06;;;;;;;;;;;;;;;18.73;79.73;101052.31;5035994;28;1064;-73
2023/08/05 11:14:32;;;;;;;;;;;;;;;18.75;79.76;101052.94;5032579;28;1261;-73
2023/08/05 11:17:07;;;;;;;;;;;;;;;18.76;79.13;101051.97;5039660;28;1150;-73
2023/08/05 11:19:50;;;;;;;;;;;;;;;18.63;79.48;101049.03;5038953;28;975;-72
2023/08/05 11:22:28;;;;;;;;;;;;;;;18.66;79.57;101035.56;5037259;28;1092;-73
2023/08/05 11:24:57;;;;;;;;;;;;;;;18.69;79.16;101025.53;5041461;28;1095;-71
2023/08/05 11:27:29;;;;;;;;;;;;;;;18.75;78.48;101026.66;5040980;28;1989;-72
2023/08/05 11:29:54;;;;;;;;;;;;;;;18.79;78.41;101017.44;5039029;28;1182;-73
2023/08/05 11:32:19;;;;;;;;;;;;;;;18.78;78.68;101015.81;5038963;28;1161;-72
2023/08/05 11:34:45;;;;;;;;;;;;;;;18.80;77.83;101013.81;5039991;28;1129;-73
2023/08/05 11:37:10;;;;;;;;;;;;;;;18.82;78.86;101001.34;5039125;28;1091;-72
2023/08/05 11:39:35;;;;;;;;;;;;;;;18.83;77.65;101002.97;5038435;28;1078;-72
2023/08/05 11:42:01;;;;;;;;;;;;;;;18.85;78.03;100993.09;5042260;28;1098;-72
2023/08/05 11:44:26;;;;;;;;;;;;;;;18.90;77.89;100998.66;5038239;28;1172;-73
2023/08/05 11:46:51;;;;;;;;;;;;;;;18.91;77.52;100984.50;5044842;28;1894;-73
2023/08/05 11:49:17;;;;;;;;;;;;;;;18.92;77.43;100985.31;5038476;28;1083;-73
2023/08/05 11:51:49;;;;;;;;;;;;;;;18.88;77.74;100994.56;5044303;28;1145;-72
2023/08/05 11:54:28;;;;;;;;;;;;;;;18.92;77.95;100990.59;5037614;28;1111;-72
2023/08/05 11:56:53;;;;;;;;;;;;;;;18.93;78.19;100986.97;5037377;28;1094;-71
2023/08/05 11:59:35;;;;;;;;;;;;;;;18.95;77.89;100985.81;5039278;28;1055;-73
2023/08/05 12:02:01;;;;;;;;;;;;;;;18.89;77.62;100985.69;5038746;28;1089;-73
2023/08/05 12:04:26;;;;;;;;;;;;;;;18.82;77.39;100980.31;5035702;28;1072;-73
2023/08/05 12:06:53;;;;;;;;;;;;;;;18.76;77.47;100986.28;5035763;28;1971;-73
2023/08/05 12:09:18;;;;;;;;;;;;;;;18.70;77.76;100982.53;5031916;28;1245;-73
2023/08/05 12:11:46;;;;;;;;;;;;;;;18.64;77.63;100972.69;5027784;28;1143;-72
2023/08/05 12:14:11;;;;;;;;;;;;;;;18.55;77.87;100971.91;5037110;28;1088;-72
2023/08/05 12:16:37;;;;;;;;;;;;;;;18.52;78.00;100974.06;5039253;28;1134;-72
2023/08/05 12:19:03;;;;;;;;;;;;;;;18.48;78.05;100973.59;5039239;28;1015;-71
2023/08/05 12:21:28;;;;;;;;;;;;;;;18.42;78.14;100974.31;5031372;28;1082;-71
2023/08/05 12:23:53;;;;;;;;;;;;;;;18.38;78.03;100966.94;5041333;28;1106;-73
2023/08/05 12:26:24;;;;;;;;;;;;;;;18.34;78.46;100966.44;5042091;28;1325;-72
2023/08/05 12:28:49;;;;;;;;;;;;;;;18.34;78.57;100961.19;5039724;28;1898;-72
2023/08/05 12:31:14;;;;;;;;;;;;;;;18.34;78.42;100949.88;5039065;28;1142;-71
2023/08/05 12:33:40;;;;;;;;;;;;;;;18.36;78.55;100953.97;5037045;28;1105;-72
2023/08/05 12:36:05;;;;;;;;;;;;;;;18.34;77.76;100958.56;5035143;28;1040;-72